createdAt,value
2022-09-12T00:00:24.525Z,51.259605
2022-09-12T00:01:24.593Z,51.259514
2022-09-12T00:02:24.526Z,51.259590
2022-09-12T00:03:24.525Z,51.259579
2022-09-12T00:04:24.481Z,51.259571
2022-09-12T00:05:24.470Z,51.259598
2022-09-12T00:06:24.462Z,51.259563
2022-09-12T00:07:24.451Z,51.259613
2022-09-12T00:08:24.458Z,51.259563
2022-09-12T00:09:24.429Z,51.259594
2022-09-12T00:10:24.420Z,51.259666
2022-09-12T00:11:24.408Z,51.259579
2022-09-12T00:12:24.403Z,51.259636
2022-09-12T00:13:24.410Z,51.259499
2022-09-12T00:14:24.379Z,51.259605
2022-09-12T00:15:24.374Z,51.259605
2022-09-12T00:16:24.435Z,51.259617
2022-09-12T00:17:24.370Z,51.259594
2022-09-12T00:18:24.365Z,51.259628
2022-09-12T00:19:24.337Z,51.259674
2022-09-12T00:20:24.323Z,51.259594
2022-09-12T00:21:24.344Z,51.259647
2022-09-12T00:22:24.312Z,51.259583
2022-09-12T00:23:24.315Z,51.259644
2022-09-12T00:24:24.284Z,51.259632
2022-09-12T00:25:24.274Z,51.259628
2022-09-12T00:26:24.267Z,51.259602
2022-09-12T00:27:24.255Z,51.259605
2022-09-12T00:28:24.270Z,51.259594
2022-09-12T00:29:24.254Z,51.259598
2022-09-12T00:30:24.224Z,51.259571
2022-09-12T00:31:24.300Z,51.259563
2022-09-12T00:32:24.208Z,51.259602
2022-09-12T00:33:24.219Z,51.259529
2022-09-12T00:34:24.189Z,51.259563
2022-09-12T00:35:24.174Z,51.259567
2022-09-12T00:36:24.170Z,51.259590
2022-09-12T00:37:24.154Z,51.259541
2022-09-12T00:38:24.176Z,51.259590
2022-09-12T00:39:24.152Z,51.259571
2022-09-12T00:40:24.124Z,51.259552
2022-09-12T00:41:24.122Z,51.259583
2022-09-12T00:42:24.112Z,51.259544
2022-09-12T00:43:24.126Z,51.259560
2022-09-12T00:44:24.087Z,51.259590
2022-09-12T00:45:24.095Z,51.259521
2022-09-12T00:46:24.072Z,51.259548
2022-09-12T00:47:24.059Z,51.259521
2022-09-12T00:48:24.071Z,51.259598
2022-09-12T00:49:24.036Z,51.259560
2022-09-12T00:50:24.034Z,51.259541
2022-09-12T00:51:24.027Z,51.259544
2022-09-12T00:52:24.015Z,51.259563
2022-09-12T00:53:24.034Z,51.259583
2022-09-12T00:54:23.987Z,51.259525
2022-09-12T00:55:23.991Z,51.259537
2022-09-12T00:56:23.993Z,51.259571
2022-09-12T00:57:23.970Z,51.259556
2022-09-12T00:58:23.974Z,51.259602
2022-09-12T00:59:23.951Z,51.259537
2022-09-12T01:00:23.939Z,51.259541
2022-09-12T01:01:23.992Z,51.259560
2022-09-12T01:02:23.931Z,51.259586
2022-09-12T01:03:23.931Z,51.259567
2022-09-12T01:04:23.895Z,51.259541
2022-09-12T01:05:23.895Z,51.259575
2022-09-12T01:06:23.882Z,51.259521
2022-09-12T01:07:23.887Z,51.259541
2022-09-12T01:08:23.873Z,51.259537
2022-09-12T01:09:23.839Z,51.259560
2022-09-12T01:10:23.842Z,51.259533
2022-09-12T01:11:23.827Z,51.259502
2022-09-12T01:12:23.813Z,51.259525
2022-09-12T01:13:23.825Z,51.259518
2022-09-12T01:14:23.803Z,51.259525
2022-09-12T01:15:23.790Z,51.259514
2022-09-12T01:16:23.822Z,51.259525
2022-09-12T01:17:23.770Z,51.259560
2022-09-12T01:18:23.779Z,51.259560
2022-09-12T01:19:23.750Z,51.259521
2022-09-12T01:20:23.749Z,51.259567
2022-09-12T01:21:23.726Z,51.259514
2022-09-12T01:22:23.724Z,51.259529
2022-09-12T01:23:23.732Z,51.259529
2022-09-12T01:24:23.714Z,51.259525
2022-09-12T01:25:23.692Z,51.259541
2022-09-12T01:26:23.683Z,51.259495
2022-09-12T01:27:23.672Z,51.259518
2022-09-12T01:28:23.684Z,51.259533
2022-09-12T01:29:23.645Z,51.259571
2022-09-12T01:30:23.652Z,51.259556
2022-09-12T01:31:23.645Z,51.259514
2022-09-12T01:32:23.655Z,51.259541
2022-09-12T01:33:23.629Z,51.259556
2022-09-12T01:34:23.608Z,51.259506
2022-09-12T01:35:23.588Z,51.259518
2022-09-12T01:36:24.585Z,51.259525
2022-09-12T01:37:23.595Z,51.259560
2022-09-12T01:38:23.581Z,51.259655
2022-09-12T01:39:23.556Z,51.259605
2022-09-12T01:40:23.543Z,51.259556
2022-09-12T01:41:23.532Z,51.259567
2022-09-12T01:42:23.521Z,51.259598
2022-09-12T01:43:23.529Z,51.259518
2022-09-12T01:44:23.510Z,51.259575
2022-09-12T01:45:23.521Z,51.259518
2022-09-12T01:46:23.484Z,51.259537
2022-09-12T01:47:23.473Z,51.259609
2022-09-12T01:48:23.472Z,51.259579
2022-09-12T01:49:23.450Z,51.259560
2022-09-12T01:50:23.451Z,51.259449
2022-09-12T01:51:23.431Z,51.259529
2022-09-12T01:52:23.457Z,51.259541
2022-09-12T01:53:23.432Z,51.259514
2022-09-12T01:54:23.404Z,51.259506
2022-09-12T01:55:23.391Z,51.259579
2022-09-12T01:56:23.387Z,51.259624
2022-09-12T01:57:23.372Z,51.259590
2022-09-12T01:58:23.384Z,51.259491
2022-09-12T01:59:23.355Z,51.259560
2022-09-12T02:00:23.348Z,51.259533
2022-09-12T02:01:23.371Z,51.259609
2022-09-12T02:02:23.350Z,51.259686
2022-09-12T02:03:23.334Z,51.259613
2022-09-12T02:04:23.305Z,51.259651
2022-09-12T02:05:23.293Z,51.259594
2022-09-12T02:06:23.288Z,51.259617
2022-09-12T02:07:23.276Z,51.259613
2022-09-12T02:08:23.287Z,51.259613
2022-09-12T02:09:23.247Z,51.259609
2022-09-12T02:10:23.248Z,51.259701
2022-09-12T02:11:23.239Z,51.259754
2022-09-12T02:12:23.225Z,51.259716
2022-09-12T02:13:23.247Z,51.259674
2022-09-12T02:14:23.203Z,51.259663
2022-09-12T02:15:23.192Z,51.259647
2022-09-12T02:16:23.224Z,51.259674
2022-09-12T02:17:23.159Z,51.259853
2022-09-12T02:18:23.179Z,51.259830
2022-09-12T02:19:23.165Z,51.259815
2022-09-12T02:20:44.460Z,51.259724
2022-09-12T02:31:10.299Z,51.259758
2022-09-12T02:32:10.287Z,51.259903
2022-09-12T02:33:10.293Z,51.259895
2022-09-12T02:34:10.265Z,51.259697
2022-09-12T02:35:10.256Z,51.259659
2022-09-12T02:36:10.251Z,51.259609
2022-09-12T02:37:10.247Z,51.259457
2022-09-12T02:38:10.244Z,51.259659
2022-09-12T02:39:10.232Z,51.259731
2022-09-12T02:40:10.282Z,51.259602
2022-09-12T02:41:10.196Z,51.259529
2022-09-12T02:42:10.189Z,51.259579
2022-09-12T02:43:10.199Z,51.259579
2022-09-12T02:44:10.172Z,51.259510
2022-09-12T02:45:10.157Z,51.259602
2022-09-12T02:46:10.187Z,51.259567
2022-09-12T02:47:10.168Z,51.259594
2022-09-12T02:48:10.853Z,51.259445
2022-09-12T02:49:10.113Z,51.259590
2022-09-12T02:50:10.108Z,51.259678
2022-09-12T02:51:10.098Z,51.259567
2022-09-12T02:52:10.094Z,51.259537
2022-09-12T02:53:10.101Z,51.259491
2022-09-12T02:54:10.073Z,51.259510
2022-09-12T02:55:10.064Z,51.259487
2022-09-12T02:56:10.041Z,51.259529
2022-09-12T02:57:10.042Z,51.259548
2022-09-12T02:58:10.049Z,51.259666
2022-09-12T02:59:10.025Z,51.259552
2022-09-12T03:00:10.007Z,51.259460
2022-09-12T03:01:10.045Z,51.259571
2022-09-12T03:02:10.030Z,51.259476
2022-09-12T03:03:09.976Z,51.259480
2022-09-12T03:04:10.985Z,51.259533
2022-09-12T03:05:09.964Z,51.259514
2022-09-12T03:06:09.952Z,51.259556
2022-09-12T03:07:09.946Z,51.259472
2022-09-12T03:08:09.937Z,51.259525
2022-09-12T03:09:09.926Z,51.259548
2022-09-12T03:10:09.911Z,51.259666
2022-09-12T03:11:09.902Z,51.259583
2022-09-12T03:12:09.887Z,51.259621
2022-09-12T03:13:09.873Z,51.259636
2022-09-12T03:14:09.888Z,51.259674
2022-09-12T03:15:09.857Z,51.259583
2022-09-12T03:16:09.872Z,51.259491
2022-09-12T03:17:09.840Z,51.259506
2022-09-12T03:18:09.843Z,51.259499
2022-09-12T03:19:09.824Z,51.259453
2022-09-12T03:20:09.816Z,51.259464
2022-09-12T03:21:09.800Z,51.259594
2022-09-12T03:22:09.791Z,51.259693
2022-09-12T03:23:09.808Z,51.259716
2022-09-12T03:24:09.763Z,51.259476
2022-09-12T03:25:09.757Z,51.259632
2022-09-12T03:26:09.767Z,51.259525
2022-09-12T03:27:09.744Z,51.259651
2022-09-12T03:28:09.745Z,51.259583
2022-09-12T03:29:09.741Z,51.259510
2022-09-12T03:30:09.712Z,51.259407
2022-09-12T03:31:09.697Z,51.259315
2022-09-12T03:32:09.710Z,51.259411
2022-09-12T03:33:09.699Z,51.259499
2022-09-12T03:34:09.670Z,51.259495
2022-09-12T03:35:09.692Z,51.259426
2022-09-12T03:36:09.645Z,51.259377
2022-09-12T03:37:09.649Z,51.259415
2022-09-12T03:38:09.630Z,51.259506
2022-09-12T03:39:09.633Z,51.259323
2022-09-12T03:40:09.714Z,51.259594
2022-09-12T03:41:09.602Z,51.259602
2022-09-12T03:42:09.595Z,51.259899
2022-09-12T03:43:09.594Z,51.259792
2022-09-12T03:44:09.571Z,51.259617
2022-09-12T03:45:09.556Z,51.259747
2022-09-12T03:46:09.614Z,51.259621
2022-09-12T03:47:11.341Z,51.259583
2022-09-12T03:48:10.544Z,51.259636
2022-09-12T03:49:09.522Z,51.259537
2022-09-12T03:50:09.518Z,51.259483
2022-09-12T03:51:09.506Z,51.259365
2022-09-12T03:52:09.489Z,51.259380
2022-09-12T03:53:10.140Z,51.259468
2022-09-12T03:54:09.474Z,51.259304
2022-09-12T03:55:09.454Z,51.259491
2022-09-12T03:56:09.434Z,51.259537
2022-09-12T03:57:09.431Z,51.259457
2022-09-12T03:58:09.439Z,51.259453
2022-09-12T03:59:09.414Z,51.259373
2022-09-12T04:00:09.399Z,51.259483
2022-09-12T04:01:09.457Z,51.259666
2022-09-12T04:02:09.405Z,51.259487
2022-09-12T04:03:09.387Z,51.259228
2022-09-12T04:04:09.358Z,51.259403
2022-09-12T04:05:09.353Z,51.259216
2022-09-12T04:06:09.342Z,51.259624
2022-09-12T04:07:09.339Z,51.259537
2022-09-12T04:08:09.334Z,51.259506
2022-09-12T04:09:09.315Z,51.259575
2022-09-12T04:10:09.725Z,51.259495
2022-09-12T04:11:10.288Z,51.259445
2022-09-12T04:12:09.286Z,51.259449
2022-09-12T04:13:09.303Z,51.259472
2022-09-12T04:14:09.276Z,51.259525
2022-09-12T04:15:09.271Z,51.259502
2022-09-12T04:16:09.314Z,51.259480
2022-09-12T04:17:09.260Z,51.259460
2022-09-12T04:18:09.257Z,51.259579
2022-09-12T04:19:09.221Z,51.259632
2022-09-12T04:20:09.204Z,51.259495
2022-09-12T04:21:09.198Z,51.259518
2022-09-12T04:22:09.175Z,51.259521
2022-09-12T04:23:10.196Z,51.259487
2022-09-12T04:24:09.175Z,51.259521
2022-09-12T04:25:09.162Z,51.259499
2022-09-12T04:26:09.154Z,51.259563
2022-09-12T04:27:09.141Z,51.259548
2022-09-12T04:28:09.143Z,51.259514
2022-09-12T04:29:09.128Z,51.259529
2022-09-12T04:30:09.113Z,51.259518
2022-09-12T04:31:09.109Z,51.259502
2022-09-12T04:32:09.087Z,51.259495
2022-09-12T04:33:09.098Z,51.259499
2022-09-12T04:34:09.071Z,51.259480
2022-09-12T04:35:09.063Z,51.259518
2022-09-12T04:36:09.061Z,51.259495
2022-09-12T04:37:09.048Z,51.259506
2022-09-12T04:38:09.052Z,51.259487
2022-09-12T04:39:09.032Z,51.259480
2022-09-12T04:40:09.056Z,51.259487
2022-09-12T04:41:09.000Z,51.259502
2022-09-12T04:42:08.986Z,51.259495
2022-09-12T04:43:13.763Z,51.259487
2022-09-12T04:44:09.965Z,51.259468
2022-09-12T04:45:08.959Z,51.259510
2022-09-12T04:46:08.991Z,51.259533
2022-09-12T04:47:08.939Z,51.259487
2022-09-12T04:48:08.927Z,51.259464
2022-09-12T04:49:08.924Z,51.259518
2022-09-12T04:50:08.910Z,51.259480
2022-09-12T04:51:08.892Z,51.259445
2022-09-12T04:52:08.881Z,51.259460
2022-09-12T04:53:08.918Z,51.259449
2022-09-12T04:54:08.867Z,51.259483
2022-09-12T04:55:08.859Z,51.259525
2022-09-12T04:56:08.845Z,51.259468
2022-09-12T04:57:08.838Z,51.259472
2022-09-12T04:58:08.841Z,51.259472
2022-09-12T04:59:08.823Z,51.259476
2022-09-12T05:00:08.807Z,51.259541
2022-09-12T05:01:08.833Z,51.259556
2022-09-12T05:02:08.848Z,51.259483
2022-09-12T05:03:08.795Z,51.259525
2022-09-12T05:04:08.772Z,51.259552
2022-09-12T05:05:08.756Z,51.259567
2022-09-12T05:06:08.748Z,51.259518
2022-09-12T05:07:08.738Z,51.259487
2022-09-12T05:08:08.735Z,51.259460
2022-09-12T05:09:08.721Z,51.259533
2022-09-12T05:10:08.705Z,51.259472
2022-09-12T05:11:08.713Z,51.259521
2022-09-12T05:12:08.674Z,51.259506
2022-09-12T05:13:08.693Z,51.259438
2022-09-12T05:14:08.672Z,51.259464
2022-09-12T05:15:08.669Z,51.259514
2022-09-12T05:16:08.688Z,51.259541
2022-09-12T05:17:08.638Z,51.259590
2022-09-12T05:18:08.687Z,51.259560
2022-09-12T05:19:08.625Z,51.259495
2022-09-12T05:20:08.607Z,51.259506
2022-09-12T05:21:08.607Z,51.259537
2022-09-12T05:22:08.582Z,51.259487
2022-09-12T05:23:08.601Z,51.259598
2022-09-12T05:24:08.581Z,51.259529
2022-09-12T05:25:08.568Z,51.259521
2022-09-12T05:26:08.556Z,51.259514
2022-09-12T05:27:08.537Z,51.259518
2022-09-12T05:28:08.544Z,51.259579
2022-09-12T05:29:08.520Z,51.259548
2022-09-12T05:30:08.502Z,51.259552
2022-09-12T05:31:08.494Z,51.259521
2022-09-12T05:32:08.496Z,51.259525
2022-09-12T05:33:08.521Z,51.259571
2022-09-12T05:34:08.472Z,51.259541
2022-09-12T05:35:08.455Z,51.259552
2022-09-12T05:36:08.461Z,51.259544
2022-09-12T05:37:08.438Z,51.259533
2022-09-12T05:38:08.440Z,51.259506
2022-09-12T05:39:08.415Z,51.259529
2022-09-12T05:40:08.479Z,51.259548
2022-09-12T05:41:08.393Z,51.259567
2022-09-12T05:42:08.386Z,51.259521
2022-09-12T05:43:08.397Z,51.259541
2022-09-12T05:44:08.363Z,51.259560
2022-09-12T05:45:08.355Z,51.259502
2022-09-12T05:46:08.392Z,51.259510
2022-09-12T05:47:08.336Z,51.259548
2022-09-12T05:48:08.341Z,51.259491
2022-09-12T05:49:08.313Z,51.259476
2022-09-12T05:50:08.309Z,51.259525
2022-09-12T05:51:08.286Z,51.259525
2022-09-12T05:52:08.287Z,51.259521
2022-09-12T05:53:08.294Z,51.259480
2022-09-12T05:54:08.274Z,51.259495
2022-09-12T05:55:08.248Z,51.259472
2022-09-12T05:56:08.297Z,51.259491
2022-09-12T05:57:08.239Z,51.259537
2022-09-12T05:58:08.239Z,51.259476
2022-09-12T05:59:08.216Z,51.259510
2022-09-12T06:00:08.208Z,51.259502
2022-09-12T06:01:08.294Z,51.259560
2022-09-12T06:02:08.218Z,51.259586
2022-09-12T06:03:08.195Z,51.259552
2022-09-12T06:04:08.176Z,51.259563
2022-09-12T06:05:08.152Z,51.259468
2022-09-12T06:06:08.154Z,51.259457
2022-09-12T06:07:09.139Z,51.259445
2022-09-12T06:08:08.135Z,51.259571
2022-09-12T06:09:08.123Z,51.259613
2022-09-12T06:10:08.106Z,51.259548
2022-09-12T06:11:08.103Z,51.259560
2022-09-12T06:12:08.094Z,51.259548
2022-09-12T06:13:08.099Z,51.259445
2022-09-12T06:14:08.075Z,51.259449
2022-09-12T06:15:08.055Z,51.259464
2022-09-12T06:16:08.065Z,51.259468
2022-09-12T06:17:08.042Z,51.259579
2022-09-12T06:18:08.034Z,51.259521
2022-09-12T06:19:08.037Z,51.259483
2022-09-12T06:20:08.016Z,51.259460
2022-09-12T06:21:08.004Z,51.259491
2022-09-12T06:22:07.998Z,51.259506
2022-09-12T06:23:08.000Z,51.259514
2022-09-12T06:24:07.973Z,51.259510
2022-09-12T06:25:07.969Z,51.259472
2022-09-12T06:26:07.962Z,51.259525
2022-09-12T06:27:07.935Z,51.259529
2022-09-12T06:28:07.936Z,51.259506
2022-09-12T06:29:07.995Z,51.259525
2022-09-12T06:30:07.977Z,51.259533
2022-09-12T06:31:07.948Z,51.259491
2022-09-12T06:32:07.900Z,51.259525
2022-09-12T06:33:07.887Z,51.259525
2022-09-12T06:34:07.896Z,51.259563
2022-09-12T06:35:07.865Z,51.259529
2022-09-12T06:36:12.043Z,51.259571
2022-09-12T06:37:08.888Z,51.259521
2022-09-12T06:38:07.832Z,51.259529
2022-09-12T06:39:07.829Z,51.259518
2022-09-12T06:40:07.869Z,51.259552
2022-09-12T06:41:07.801Z,51.259525
2022-09-12T06:42:07.797Z,51.259541
2022-09-12T06:43:07.774Z,51.259544
2022-09-12T06:44:07.789Z,51.259548
2022-09-12T06:45:07.769Z,51.259541
2022-09-12T06:46:07.824Z,51.259476
2022-09-12T06:47:07.745Z,51.259480
2022-09-12T06:48:07.739Z,51.259464
2022-09-12T06:49:07.743Z,51.259491
2022-09-12T06:50:07.716Z,51.259521
2022-09-12T06:51:07.704Z,51.259491
2022-09-12T06:52:07.692Z,51.259521
2022-09-12T06:53:07.765Z,51.259480
2022-09-12T06:54:07.690Z,51.259544
2022-09-12T06:55:08.614Z,51.259533
2022-09-12T06:56:07.658Z,51.259571
2022-09-12T06:57:07.644Z,51.259567
2022-09-12T06:58:07.652Z,51.259571
2022-09-12T06:59:07.646Z,51.259602
2022-09-12T07:00:07.611Z,51.259548
2022-09-12T07:01:07.687Z,51.259586
2022-09-12T07:02:07.681Z,51.259563
2022-09-12T07:03:07.583Z,51.259548
2022-09-12T07:04:07.578Z,51.259521
2022-09-12T07:05:07.564Z,51.259537
2022-09-12T07:06:07.548Z,51.259544
2022-09-12T07:07:07.563Z,51.259563
2022-09-12T07:08:07.530Z,51.259525
2022-09-12T07:09:07.543Z,51.259502
2022-09-12T07:10:07.531Z,51.259495
2022-09-12T07:11:07.499Z,51.259480
2022-09-12T07:12:07.494Z,51.259472
2022-09-12T07:13:07.484Z,51.259407
2022-09-12T07:14:07.479Z,51.259518
2022-09-12T07:15:07.482Z,51.259514
2022-09-12T07:16:07.444Z,51.259457
2022-09-12T07:17:07.480Z,51.259499
2022-09-12T07:18:07.440Z,51.259537
2022-09-12T07:19:07.458Z,51.259563
2022-09-12T07:20:07.408Z,51.259632
2022-09-12T07:21:07.423Z,51.259533
2022-09-12T07:22:07.387Z,51.259560
2022-09-12T07:23:07.387Z,51.259598
2022-09-12T07:24:07.381Z,51.259556
2022-09-12T07:25:07.354Z,51.259529
2022-09-12T07:26:07.347Z,51.259449
2022-09-12T07:27:07.344Z,51.259506
2022-09-12T07:28:07.334Z,51.259518
2022-09-12T07:29:34.851Z,51.259533
2022-09-12T07:30:09.309Z,51.259563
2022-09-12T07:31:07.345Z,51.259521
2022-09-12T07:32:07.298Z,51.259510
2022-09-12T07:33:07.292Z,51.259541
2022-09-12T07:34:07.299Z,51.259499
2022-09-12T07:35:07.263Z,51.259556
2022-09-12T07:36:07.263Z,51.259518
2022-09-12T07:37:07.236Z,51.259460
2022-09-12T07:38:07.226Z,51.259468
2022-09-12T07:39:07.215Z,51.259583
2022-09-12T07:40:07.293Z,51.259621
2022-09-12T07:41:07.199Z,51.259464
2022-09-12T07:42:07.192Z,51.259438
2022-09-12T07:43:07.171Z,51.259502
2022-09-12T07:44:07.205Z,51.259453
2022-09-12T07:45:07.184Z,51.259460
2022-09-12T07:46:08.179Z,51.259445
2022-09-12T07:47:07.135Z,51.259506
2022-09-12T07:48:07.130Z,51.259544
2022-09-12T07:49:08.378Z,51.259537
2022-09-12T07:50:07.106Z,51.259487
2022-09-12T07:51:07.093Z,51.259548
2022-09-12T07:52:07.087Z,51.259476
2022-09-12T07:53:07.084Z,51.259476
2022-09-12T07:54:07.079Z,51.259460
2022-09-12T07:55:07.048Z,51.259487
2022-09-12T07:56:08.044Z,51.259426
2022-09-12T07:57:07.039Z,51.259411
2022-09-12T07:58:07.017Z,51.259457
2022-09-12T07:59:07.047Z,51.259430
2022-09-12T08:00:07.013Z,51.259434
2022-09-12T08:01:07.024Z,51.259579
2022-09-12T08:02:07.009Z,51.259525
2022-09-12T08:03:06.987Z,51.259495
2022-09-12T08:04:06.963Z,51.259480
2022-09-12T08:05:06.969Z,51.259548
2022-09-12T08:06:06.952Z,51.259541
2022-09-12T08:07:06.935Z,51.259487
2022-09-12T08:08:06.918Z,51.259502
2022-09-12T08:09:06.935Z,51.259483
2022-09-12T08:10:06.917Z,51.259518
2022-09-12T08:11:06.897Z,51.259541
2022-09-12T08:12:06.880Z,51.259548
2022-09-12T08:13:06.880Z,51.259590
2022-09-12T08:14:06.861Z,51.259560
2022-09-12T08:15:06.845Z,51.259583
2022-09-12T08:16:06.892Z,51.259567
2022-09-12T08:17:06.860Z,51.259560
2022-09-12T08:18:06.844Z,51.259575
2022-09-12T08:19:06.830Z,51.259541
2022-09-12T08:20:06.799Z,51.259499
2022-09-12T08:21:06.788Z,51.259510
2022-09-12T08:22:06.781Z,51.259502
2022-09-12T08:23:06.775Z,51.259472
2022-09-12T08:24:06.800Z,51.259518
2022-09-12T08:25:06.747Z,51.259537
2022-09-12T08:26:06.735Z,51.259480
2022-09-12T08:27:06.720Z,51.259510
2022-09-12T08:28:06.723Z,51.259491
2022-09-12T08:29:06.723Z,51.259438
2022-09-12T08:30:06.701Z,51.259476
2022-09-12T08:31:06.736Z,51.259521
2022-09-12T08:32:06.679Z,51.259594
2022-09-12T08:33:06.670Z,51.259590
2022-09-12T08:34:06.677Z,51.259518
2022-09-12T08:35:06.642Z,51.259457
2022-09-12T08:36:06.643Z,51.259510
2022-09-12T08:37:06.626Z,51.259571
2022-09-12T08:38:06.622Z,51.259613
2022-09-12T08:39:06.627Z,51.259495
2022-09-12T08:40:06.638Z,51.259544
2022-09-12T08:41:06.588Z,51.259529
2022-09-12T08:42:06.618Z,51.259575
2022-09-12T08:43:06.593Z,51.259537
2022-09-12T08:44:06.611Z,51.259590
2022-09-12T08:45:06.562Z,51.259617
2022-09-12T08:46:06.622Z,51.259521
2022-09-12T08:47:06.543Z,51.259537
2022-09-12T08:48:06.548Z,51.259563
2022-09-12T08:49:06.542Z,51.259510
2022-09-12T08:50:06.516Z,51.259499
2022-09-12T08:51:06.503Z,51.259510
2022-09-12T08:52:06.515Z,51.259491
2022-09-12T08:53:06.491Z,51.259499
2022-09-12T08:54:06.521Z,51.259544
2022-09-12T08:55:06.465Z,51.259502
2022-09-12T08:56:06.456Z,51.259541
2022-09-12T08:57:06.434Z,51.259510
2022-09-12T08:58:06.460Z,51.259552
2022-09-12T08:59:06.422Z,51.259579
2022-09-12T09:00:06.404Z,51.259521
2022-09-12T09:01:06.433Z,51.259468
2022-09-12T09:02:06.418Z,51.259502
2022-09-12T09:03:06.404Z,51.259480
2022-09-12T09:04:06.373Z,51.259483
2022-09-12T09:05:06.363Z,51.259529
2022-09-12T09:06:06.342Z,51.259518
2022-09-12T09:07:06.343Z,51.259499
2022-09-12T09:08:06.352Z,51.259460
2022-09-12T09:09:06.311Z,51.259445
2022-09-12T09:10:06.311Z,51.259483
2022-09-12T09:11:06.306Z,51.259514
2022-09-12T09:12:06.283Z,51.259514
2022-09-12T09:13:06.305Z,51.259460
2022-09-12T09:14:06.265Z,51.259560
2022-09-12T09:15:06.259Z,51.259521
2022-09-12T09:16:06.320Z,51.259502
2022-09-12T09:17:06.241Z,51.259571
2022-09-12T09:18:06.249Z,51.259480
2022-09-12T09:19:06.220Z,51.259480
2022-09-12T09:20:06.225Z,51.259480
2022-09-12T09:21:06.197Z,51.259476
2022-09-12T09:22:06.290Z,51.259487
2022-09-12T09:23:06.204Z,51.259499
2022-09-12T09:24:06.211Z,51.259483
2022-09-12T09:25:06.162Z,51.259476
2022-09-12T09:26:06.146Z,51.259476
2022-09-12T09:27:14.328Z,51.259499
2022-09-12T09:28:08.144Z,51.259502
2022-09-12T09:29:06.109Z,51.259460
2022-09-12T09:30:06.111Z,51.259510
2022-09-12T09:31:06.123Z,51.259537
2022-09-12T09:32:06.085Z,51.259502
2022-09-12T09:33:06.086Z,51.259506
2022-09-12T09:34:06.072Z,51.259495
2022-09-12T09:35:06.058Z,51.259537
2022-09-12T09:36:06.052Z,51.259514
2022-09-12T09:37:06.024Z,51.259506
2022-09-12T09:38:06.027Z,51.259491
2022-09-12T09:39:06.038Z,51.259495
2022-09-12T09:40:06.073Z,51.259552
2022-09-12T09:41:06.001Z,51.259476
2022-09-12T09:42:05.982Z,51.259487
2022-09-12T09:43:05.986Z,51.259521
2022-09-12T09:45:05.958Z,51.259506
2022-09-12T09:46:05.964Z,51.259468
2022-09-12T09:47:05.934Z,51.259548
2022-09-12T09:48:05.922Z,51.259529
2022-09-12T09:49:05.929Z,51.259533
2022-09-12T09:50:05.909Z,51.259525
2022-09-12T09:51:05.899Z,51.259487
2022-09-12T09:52:05.886Z,51.259499
2022-09-12T09:53:05.894Z,51.259563
2022-09-12T09:54:05.887Z,51.259552
2022-09-12T09:55:05.859Z,51.259518
2022-09-12T09:56:05.864Z,51.259521
2022-09-12T09:57:05.837Z,51.259541
2022-09-12T09:58:05.830Z,51.259586
2022-09-12T09:59:05.845Z,51.259548
2022-09-12T10:00:05.813Z,51.259571
2022-09-12T10:01:05.889Z,51.259510
2022-09-12T10:02:05.846Z,51.259525
2022-09-12T10:03:08.209Z,51.259541
2022-09-12T10:04:05.788Z,51.259483
2022-09-12T10:05:05.759Z,51.259449
2022-09-12T10:06:05.762Z,51.259369
2022-09-12T10:07:05.738Z,51.259521
2022-09-12T10:08:05.729Z,51.259624
2022-09-12T10:09:05.734Z,51.259571
2022-09-12T10:10:05.720Z,51.259541
2022-09-12T10:11:05.703Z,51.259525
2022-09-12T10:12:05.693Z,51.259571
2022-09-12T10:13:05.667Z,51.259468
2022-09-12T10:14:05.684Z,51.259426
2022-09-12T10:15:05.669Z,51.259441
2022-09-12T10:16:05.707Z,51.259460
2022-09-12T10:17:05.631Z,51.259399
2022-09-12T10:18:05.630Z,51.259480
2022-09-12T10:19:05.642Z,51.259518
2022-09-12T10:20:22.038Z,51.259464
2022-09-12T10:21:07.601Z,51.259331
2022-09-12T10:22:05.589Z,51.259186
2022-09-12T10:23:05.579Z,51.259388
2022-09-12T10:24:05.585Z,51.259514
2022-09-12T10:25:05.572Z,51.259422
2022-09-12T10:26:05.556Z,51.259335
2022-09-12T10:27:05.550Z,51.259384
2022-09-12T10:28:05.538Z,51.259403
2022-09-12T10:29:05.533Z,51.259377
2022-09-12T10:30:05.509Z,51.259331
2022-09-12T10:31:05.552Z,51.259388
2022-09-12T10:32:06.492Z,51.259460
2022-09-12T10:33:05.480Z,51.259472
2022-09-12T10:34:05.484Z,51.259438
2022-09-12T10:35:05.463Z,51.259476
2022-09-12T10:36:05.452Z,51.259483
2022-09-12T10:37:05.439Z,51.259483
2022-09-12T10:38:05.429Z,51.259438
2022-09-12T10:39:05.437Z,51.259453
2022-09-12T10:40:05.482Z,51.259476
2022-09-12T10:41:05.406Z,51.259541
2022-09-12T10:42:05.403Z,51.259525
2022-09-12T10:43:05.390Z,51.259495
2022-09-12T10:44:05.394Z,51.259525
2022-09-12T10:45:05.355Z,51.259472
2022-09-12T10:46:05.388Z,51.259514
2022-09-12T10:47:05.343Z,51.259476
2022-09-12T10:48:07.666Z,51.259396
2022-09-12T10:49:06.341Z,51.259476
2022-09-12T10:50:05.317Z,51.259529
2022-09-12T10:51:05.302Z,51.259521
2022-09-12T10:52:05.293Z,51.259537
2022-09-12T10:53:05.290Z,51.259518
2022-09-12T10:54:05.305Z,51.259548
2022-09-12T10:55:05.259Z,51.259499
2022-09-12T10:56:05.258Z,51.259487
2022-09-12T10:57:05.237Z,51.259445
2022-09-12T10:58:05.236Z,51.259487
2022-09-12T10:59:05.250Z,51.259514
2022-09-12T11:00:05.213Z,51.259460
2022-09-12T11:01:05.228Z,51.259480
2022-09-12T11:02:05.242Z,51.259411
2022-09-12T11:03:05.188Z,51.259415
2022-09-12T11:04:05.193Z,51.259552
2022-09-12T11:05:05.219Z,51.259537
2022-09-12T11:06:05.155Z,51.259491
2022-09-12T11:07:05.147Z,51.259460
2022-09-12T11:08:05.144Z,51.259563
2022-09-12T11:09:05.142Z,51.259518
2022-09-12T11:10:05.136Z,51.259476
2022-09-12T11:11:05.108Z,51.259510
2022-09-12T11:12:05.090Z,51.259480
2022-09-12T11:13:05.124Z,51.259476
2022-09-12T11:14:05.096Z,51.259464
2022-09-12T11:15:05.068Z,51.259541
2022-09-12T11:16:05.090Z,51.259518
2022-09-12T11:17:05.039Z,51.259552
2022-09-12T11:18:05.039Z,51.259472
2022-09-12T11:19:05.054Z,51.259422
2022-09-12T11:20:05.017Z,51.259480
2022-09-12T11:21:05.001Z,51.259548
2022-09-12T11:22:04.990Z,51.259560
2022-09-12T11:23:05.981Z,51.259541
2022-09-12T11:24:05.011Z,51.259495
2022-09-12T11:25:05.957Z,51.259453
2022-09-12T11:26:04.950Z,51.259460
2022-09-12T11:27:04.963Z,51.259491
2022-09-12T11:28:04.933Z,51.259472
2022-09-12T11:29:04.937Z,51.259430
2022-09-12T11:30:04.907Z,51.259411
2022-09-12T11:31:04.979Z,51.259514
2022-09-12T11:32:04.915Z,51.259544
2022-09-12T11:33:04.879Z,51.259567
2022-09-12T11:34:04.911Z,51.259602
2022-09-12T11:35:04.867Z,51.259617